Time;durP1;ratioP1;P1;durP2;ratioP2;P2;SDS_P1;SDS_P2;PMS_P1;PMS_P2;Temp;Humidity;BMP_temperature;BMP_pressure;BME280_temperature;BME280_humidity;BME280_pressure;Samples;Min_cycle;Max_cycle;Signal;HPM_P1;HPM_P2
2022/11/13 00:01:33;;;;;;;26.75;12.98;;;;;;;;;;4950622;28;20047;-72
2022/11/13 00:04:02;;;;;;;25.17;13.02;;;;;;;;;;4955937;28;20058;-73
2022/11/13 00:06:29;;;;;;;25.75;12.10;;;;;;;;;;4972920;28;20078;-73
2022/11/13 00:08:56;;;;;;;24.52;11.90;;;;;;;;;;4965371;28;20082;-72
2022/11/13 00:11:23;;;;;;;23.83;11.75;;;;;;;;;;4996458;28;20104;-72
2022/11/13 00:13:50;;;;;;;20.33;11.05;;;;;;;;;;4973601;28;20069;-72
2022/11/13 00:16:19;;;;;;;25.67;11.43;;;;;;;;;;4979710;28;20074;-72
2022/11/13 00:18:46;;;;;;;23.40;11.93;;;;;;;;;;4982236;28;20225;-71
2022/11/13 00:21:15;;;;;;;28.65;12.18;;;;;;;;;;4974612;28;20069;-72
2022/11/13 00:23:41;;;;;;;24.95;11.00;;;;;;;;;;4988499;28;20093;-72
2022/11/13 00:26:09;;;;;;;20.58;10.82;;;;;;;;;;4966033;28;20058;-72
2022/11/13 00:28:36;;;;;;;21.15;11.02;;;;;;;;;;4957833;28;20053;-73
2022/11/13 00:31:03;;;;;;;20.40;10.07;;;;;;;;;;4960503;28;20057;-72
2022/11/13 00:33:31;;;;;;;22.92;11.27;;;;;;;;;;4953036;28;20080;-72
2022/11/13 00:36:01;;;;;;;22.57;10.90;;;;;;;;;;4959812;28;20078;-72
2022/11/13 00:38:30;;;;;;;26.45;12.20;;;;;;;;;;4963725;28;20380;-73
2022/11/13 00:40:57;;;;;;;24.60;10.90;;;;;;;;;;4967684;28;20051;-72
2022/11/13 00:43:24;;;;;;;24.80;11.10;;;;;;;;;;4991128;28;20054;-72
2022/11/13 00:45:51;;;;;;;22.30;11.10;;;;;;;;;;4968367;28;20111;-72
2022/11/13 00:48:17;;;;;;;21.63;11.00;;;;;;;;;;4974581;28;20069;-72
2022/11/13 00:50:44;;;;;;;21.30;10.40;;;;;;;;;;4960124;28;20059;-72
2022/11/13 00:53:11;;;;;;;22.88;10.65;;;;;;;;;;4969604;28;20153;-72
2022/11/13 00:55:42;;;;;;;22.65;10.60;;;;;;;;;;4943584;28;20167;-72
2022/11/13 00:58:08;;;;;;;23.13;10.77;;;;;;;;;;4930234;28;20114;-72
2022/11/13 01:00:35;;;;;;;20.83;9.40;;;;;;;;;;4896923;28;20055;-73
2022/11/13 01:03:03;;;;;;;20.55;9.82;;;;;;;;;;4974331;28;20046;-72
2022/11/13 01:05:30;;;;;;;24.73;10.82;;;;;;;;;;5005533;28;20058;-72
2022/11/13 01:07:59;;;;;;;20.65;9.55;;;;;;;;;;4981474;28;20042;-72
2022/11/13 01:10:27;;;;;;;21.27;9.35;;;;;;;;;;4960624;28;20085;-72
2022/11/13 01:12:55;;;;;;;20.33;9.13;;;;;;;;;;4986781;28;20054;-72
2022/11/13 01:15:24;;;;;;;20.38;9.52;;;;;;;;;;5007270;28;20058;-72
2022/11/13 01:17:53;;;;;;;20.55;9.40;;;;;;;;;;4970187;28;20054;-72
2022/11/13 01:20:22;;;;;;;20.95;9.38;;;;;;;;;;4965178;28;20058;-72
2022/11/13 01:22:49;;;;;;;19.60;8.68;;;;;;;;;;4983885;28;20524;-72
2022/11/13 01:25:15;;;;;;;18.80;8.82;;;;;;;;;;4955946;28;20122;-72
2022/11/13 01:27:42;;;;;;;20.70;9.18;;;;;;;;;;4968416;28;20058;-72
2022/11/13 01:30:11;;;;;;;17.63;8.68;;;;;;;;;;4967927;28;20082;-73
2022/11/13 01:32:38;;;;;;;;;;;;;;;;;;4961785;28;20141;-72
2022/11/13 01:35:05;;;;;;;16.70;8.13;;;;;;;;;;4972042;28;19926;-73
2022/11/13 01:37:31;;;;;;;21.48;8.73;;;;;;;;;;4979801;28;20051;-72
2022/11/13 01:39:58;;;;;;;21.08;9.32;;;;;;;;;;4989969;28;20050;-72
2022/11/13 01:42:25;;;;;;;21.70;8.75;;;;;;;;;;4960206;28;20046;-75
2022/11/13 01:44:53;;;;;;;21.42;8.68;;;;;;;;;;4990869;28;20051;-72
2022/11/13 01:47:23;;;;;;;19.52;8.73;;;;;;;;;;5002235;28;20054;-72
2022/11/13 01:49:51;;;;;;;18.38;8.68;;;;;;;;;;4978231;28;20054;-72
2022/11/13 01:52:23;;;;;;;19.40;8.60;;;;;;;;;;4966405;28;20050;-72
2022/11/13 01:54:52;;;;;;;19.63;8.10;;;;;;;;;;5007684;28;20113;-72
2022/11/13 01:57:19;;;;;;;18.40;7.65;;;;;;;;;;5007917;28;20068;-72
2022/11/13 01:59:49;;;;;;;17.23;8.20;;;;;;;;;;4995597;28;20058;-73
2022/11/13 02:02:16;;;;;;;17.08;7.57;;;;;;;;;;4983797;28;20058;-72
2022/11/13 02:04:45;;;;;;;16.00;7.47;;;;;;;;;;4971223;28;20054;-72
2022/11/13 02:07:13;;;;;;;18.10;7.35;;;;;;;;;;4982745;28;20054;-72
2022/11/13 02:09:43;;;;;;;15.45;7.25;;;;;;;;;;4977856;28;20061;-72
2022/11/13 02:12:11;;;;;;;14.50;7.03;;;;;;;;;;4970520;28;20073;-72
2022/11/13 02:14:39;;;;;;;18.43;7.73;;;;;;;;;;4965488;28;20054;-72
2022/11/13 02:17:08;;;;;;;12.38;6.53;;;;;;;;;;4977897;28;20365;-72
2022/11/13 02:19:36;;;;;;;14.20;6.68;;;;;;;;;;5000528;28;20236;-72
2022/11/13 02:22:07;;;;;;;15.00;7.28;;;;;;;;;;4969565;28;20077;-72
2022/11/13 02:24:39;;;;;;;15.55;7.25;;;;;;;;;;4973504;28;20058;-72
2022/11/13 02:27:09;;;;;;;16.92;6.97;;;;;;;;;;4986008;28;20057;-72
2022/11/13 02:29:36;;;;;;;14.65;6.97;;;;;;;;;;4974257;28;20070;-72
2022/11/13 02:32:03;;;;;;;17.42;6.95;;;;;;;;;;5002417;28;20062;-72
2022/11/13 02:34:30;;;;;;;15.50;7.05;;;;;;;;;;4964932;28;20054;-72
2022/11/13 02:36:56;;;;;;;15.20;6.78;;;;;;;;;;4974054;28;20047;-72
2022/11/13 02:39:25;;;;;;;15.82;7.00;;;;;;;;;;4991838;28;20144;-72
2022/11/13 02:41:54;;;;;;;16.50;7.47;;;;;;;;;;4958799;28;20062;-72
2022/11/13 02:44:23;;;;;;;;;;;;;;;;;;4969524;28;20046;-72
2022/11/13 02:46:52;;;;;;;12.80;5.93;;;;;;;;;;4969705;28;19933;-72
2022/11/13 02:49:18;;;;;;;13.27;6.53;;;;;;;;;;4963618;28;20205;-72
2022/11/13 02:51:46;;;;;;;11.85;6.00;;;;;;;;;;5489182;23;20201;-72
2022/11/13 02:54:12;;;;;;;14.02;6.85;;;;;;;;;;4937531;28;20378;-72
2022/11/13 02:56:39;;;;;;;15.07;7.05;;;;;;;;;;4952461;28;20051;-72
2022/11/13 02:59:08;;;;;;;12.82;6.03;;;;;;;;;;4959526;28;20047;-72
2022/11/13 03:01:35;;;;;;;13.30;6.00;;;;;;;;;;4946035;28;20153;-72
2022/11/13 03:04:02;;;;;;;15.82;6.55;;;;;;;;;;4931387;28;20055;-73
2022/11/13 03:06:29;;;;;;;15.15;6.07;;;;;;;;;;4932784;28;20071;-73
2022/11/13 03:08:56;;;;;;;13.73;6.28;;;;;;;;;;4935127;28;20146;-73
2022/11/13 03:11:23;;;;;;;13.52;5.55;;;;;;;;;;4948996;28;20055;-73
2022/11/13 03:13:50;;;;;;;13.27;5.90;;;;;;;;;;4943560;28;20079;-73
2022/11/13 03:16:20;;;;;;;17.55;6.57;;;;;;;;;;4954635;28;20113;-72
2022/11/13 03:18:49;;;;;;;12.52;5.85;;;;;;;;;;4922922;28;20054;-73
2022/11/13 03:21:16;;;;;;;11.70;5.80;;;;;;;;;;4954521;28;20067;-72
2022/11/13 03:23:44;;;;;;;11.98;5.57;;;;;;;;;;4944892;28;20059;-72
2022/11/13 03:26:12;;;;;;;12.20;5.57;;;;;;;;;;4951562;28;20062;-72
2022/11/13 03:28:39;;;;;;;13.27;5.85;;;;;;;;;;4940326;28;20054;-72
2022/11/13 03:31:06;;;;;;;11.23;5.43;;;;;;;;;;4942777;28;20146;-72
2022/11/13 03:33:35;;;;;;;11.57;5.75;;;;;;;;;;4935968;28;20055;-72
2022/11/13 03:36:02;;;;;;;12.50;5.88;;;;;;;;;;4944093;28;20074;-72
2022/11/13 03:38:29;;;;;;;15.15;6.15;;;;;;;;;;4943012;28;20323;-72
2022/11/13 03:40:56;;;;;;;13.05;5.70;;;;;;;;;;4917731;28;20124;-72
2022/11/13 03:43:23;;;;;;;12.00;5.07;;;;;;;;;;4946480;28;20058;-72
2022/11/13 03:45:49;;;;;;;13.40;5.00;;;;;;;;;;4933620;28;20142;-72
2022/11/13 03:48:22;;;;;;;11.95;5.10;;;;;;;;;;4931766;28;20134;-72
2022/11/13 03:50:53;;;;;;;12.30;5.30;;;;;;;;;;4932398;28;20067;-72
2022/11/13 03:53:20;;;;;;;13.23;5.75;;;;;;;;;;4926437;28;20048;-72
2022/11/13 03:55:47;;;;;;;12.85;5.43;;;;;;;;;;4923851;28;20062;-72
2022/11/13 03:58:14;;;;;;;12.25;4.93;;;;;;;;;;4935940;28;20162;-72
2022/11/13 04:00:41;;;;;;;9.48;4.57;;;;;;;;;;4943947;28;20110;-72
2022/11/13 04:03:08;;;;;;;11.82;5.35;;;;;;;;;;4949781;28;20150;-72
2022/11/13 04:05:35;;;;;;;11.45;5.55;;;;;;;;;;4954802;28;20058;-72
2022/11/13 04:08:03;;;;;;;10.82;5.15;;;;;;;;;;4925435;28;20047;-72
2022/11/13 04:10:32;;;;;;;10.60;4.82;;;;;;;;;;4928236;28;20108;-72
2022/11/13 04:12:58;;;;;;;;;;;;;;;;;;4951015;28;20138;-72
2022/11/13 04:15:25;;;;;;;9.30;4.88;;;;;;;;;;4948021;28;19926;-72
2022/11/13 04:17:52;;;;;;;9.27;4.43;;;;;;;;;;4928573;28;20114;-72
2022/11/13 04:20:18;;;;;;;11.45;4.97;;;;;;;;;;4941572;28;20066;-72
2022/11/13 04:22:45;;;;;;;10.60;4.82;;;;;;;;;;4920356;28;20065;-72
2022/11/13 04:25:13;;;;;;;12.98;4.95;;;;;;;;;;4938072;28;20050;-72
2022/11/13 04:27:40;;;;;;;12.60;5.28;;;;;;;;;;4933182;28;20062;-72
2022/11/13 04:30:10;;;;;;;11.00;4.80;;;;;;;;;;4915894;28;20048;-72
2022/11/13 04:32:37;;;;;;;11.15;5.20;;;;;;;;;;4909247;28;20055;-72
2022/11/13 04:35:12;;;;;;;9.38;4.68;;;;;;;;;;4913077;28;20167;-72
2022/11/13 04:37:38;;;;;;;10.00;4.88;;;;;;;;;;4915822;28;20059;-72
2022/11/13 04:40:08;;;;;;;12.98;4.60;;;;;;;;;;4945768;28;20143;-73
2022/11/13 04:42:47;;;;;;;10.45;4.53;;;;;;;;;;4921810;28;20069;-72
2022/11/13 04:45:14;;;;;;;11.07;4.53;;;;;;;;;;4964501;28;20409;-72
2022/11/13 04:47:41;;;;;;;10.63;5.07;;;;;;;;;;4966308;28;20081;-72
2022/11/13 04:50:08;;;;;;;9.40;4.72;;;;;;;;;;4936260;28;20086;-72
2022/11/13 04:52:35;;;;;;;9.73;4.15;;;;;;;;;;4956351;28;20141;-72
2022/11/13 04:55:01;;;;;;;9.98;4.53;;;;;;;;;;4970482;28;20058;-72
2022/11/13 04:57:28;;;;;;;10.95;4.53;;;;;;;;;;4952236;28;20139;-72
2022/11/13 04:59:56;;;;;;;9.25;3.97;;;;;;;;;;4949663;28;20063;-72
2022/11/13 05:02:23;;;;;;;12.43;5.32;;;;;;;;;;4943300;28;20063;-72
2022/11/13 05:04:50;;;;;;;9.52;4.57;;;;;;;;;;4944899;28;20323;-72
2022/11/13 05:07:18;;;;;;;12.30;4.68;;;;;;;;;;4936348;28;20154;-72
2022/11/13 05:09:44;;;;;;;11.90;4.80;;;;;;;;;;4955608;28;20055;-72
2022/11/13 05:12:11;;;;;;;8.35;4.32;;;;;;;;;;4951097;28;20101;-72
2022/11/13 05:14:38;;;;;;;9.18;4.20;;;;;;;;;;4946377;28;20063;-72
2022/11/13 05:17:07;;;;;;;10.02;4.20;;;;;;;;;;4956659;28;20043;-72
2022/11/13 05:19:34;;;;;;;10.98;4.50;;;;;;;;;;4945425;28;20051;-72
2022/11/13 05:22:01;;;;;;;9.68;4.47;;;;;;;;;;4941912;28;20063;-72
2022/11/13 05:24:28;;;;;;;8.88;4.53;;;;;;;;;;4947048;28;20052;-72
2022/11/13 05:26:55;;;;;;;9.25;4.55;;;;;;;;;;4950135;28;20055;-72
2022/11/13 05:29:22;;;;;;;9.52;4.85;;;;;;;;;;4935753;28;20138;-72
2022/11/13 05:31:49;;;;;;;9.88;4.60;;;;;;;;;;4955859;28;20047;-72
2022/11/13 05:34:17;;;;;;;9.00;4.55;;;;;;;;;;4950491;28;20066;-72
2022/11/13 05:36:44;;;;;;;8.25;4.18;;;;;;;;;;4946718;28;20055;-72
2022/11/13 05:39:11;;;;;;;8.98;4.22;;;;;;;;;;4943136;28;20114;-72
2022/11/13 05:41:38;;;;;;;9.73;4.55;;;;;;;;;;4956383;28;20055;-72
2022/11/13 05:44:04;;;;;;;9.00;4.38;;;;;;;;;;4938252;28;20059;-72
2022/11/13 05:46:31;;;;;;;10.07;4.75;;;;;;;;;;4936134;28;20070;-72
2022/11/13 05:48:59;;;;;;;9.35;4.35;;;;;;;;;;4940824;28;20195;-72
2022/11/13 05:51:28;;;;;;;8.73;3.85;;;;;;;;;;4937628;28;20059;-72
2022/11/13 05:53:55;;;;;;;9.65;4.38;;;;;;;;;;4929347;28;20059;-72
2022/11/13 05:56:23;;;;;;;8.90;4.13;;;;;;;;;;4955091;28;20055;-73
2022/11/13 05:58:51;;;;;;;10.05;4.20;;;;;;;;;;4961475;28;20089;-72
2022/11/13 06:01:19;;;;;;;9.27;3.92;;;;;;;;;;4971925;28;20061;-72
2022/11/13 06:03:46;;;;;;;8.93;3.97;;;;;;;;;;4965247;28;20062;-72
2022/11/13 06:06:16;;;;;;;7.65;3.95;;;;;;;;;;4955549;28;20062;-72
2022/11/13 06:08:45;;;;;;;8.77;4.07;;;;;;;;;;4959012;28;20047;-72
2022/11/13 06:11:13;;;;;;;8.80;4.15;;;;;;;;;;4912860;28;20055;-72
2022/11/13 06:13:40;;;;;;;8.57;4.05;;;;;;;;;;4943426;28;20060;-72
2022/11/13 06:16:08;;;;;;;8.93;4.43;;;;;;;;;;4916492;28;20059;-72
2022/11/13 06:18:34;;;;;;;10.10;4.32;;;;;;;;;;4913868;28;20052;-73
2022/11/13 06:21:04;;;;;;;9.93;4.55;;;;;;;;;;4932948;28;20051;-72
2022/11/13 06:23:32;;;;;;;11.00;4.40;;;;;;;;;;4953800;28;20055;-72
2022/11/13 06:26:04;;;;;;;10.48;4.00;;;;;;;;;;4941827;28;20072;-72
2022/11/13 06:28:31;;;;;;;11.40;4.00;;;;;;;;;;4930136;28;20048;-72
2022/11/13 06:31:02;;;;;;;13.63;4.65;;;;;;;;;;4954708;28;20068;-73
2022/11/13 06:33:29;;;;;;;9.43;4.60;;;;;;;;;;4962830;28;20395;-72
2022/11/13 06:35:55;;;;;;;9.55;4.30;;;;;;;;;;4951120;28;20138;-72
2022/11/13 06:38:23;;;;;;;9.63;4.70;;;;;;;;;;4936824;28;20075;-74
2022/11/13 06:40:49;;;;;;;8.25;3.90;;;;;;;;;;4947403;28;20175;-75
2022/11/13 06:43:18;;;;;;;8.20;3.90;;;;;;;;;;4930020;28;20066;-74
2022/11/13 06:45:45;;;;;;;7.85;3.75;;;;;;;;;;4945367;28;20051;-72
2022/11/13 06:48:11;;;;;;;11.52;3.53;;;;;;;;;;4947796;28;20047;-72
2022/11/13 06:50:38;;;;;;;8.30;3.80;;;;;;;;;;4944217;28;20051;-72
2022/11/13 06:53:15;;;;;;;9.00;4.03;;;;;;;;;;4937061;28;20082;-72
2022/11/13 06:55:47;;;;;;;11.95;4.28;;;;;;;;;;4938238;28;20051;-72
2022/11/13 06:58:14;;;;;;;10.20;4.22;;;;;;;;;;4935915;28;20051;-72
2022/11/13 07:00:45;;;;;;;8.68;3.83;;;;;;;;;;4944764;28;20083;-72
2022/11/13 07:03:15;;;;;;;9.82;4.35;;;;;;;;;;4918244;28;20110;-72
2022/11/13 07:05:42;;;;;;;7.50;3.83;;;;;;;;;;4903344;28;20066;-72
2022/11/13 07:08:09;;;;;;;8.43;3.95;;;;;;;;;;4934876;28;20134;-72
2022/11/13 07:10:36;;;;;;;6.95;3.58;;;;;;;;;;4946490;28;20048;-72
2022/11/13 07:13:03;;;;;;;9.40;4.35;;;;;;;;;;4925021;28;20102;-72
2022/11/13 07:15:30;;;;;;;9.07;3.75;;;;;;;;;;4947638;28;20071;-72
2022/11/13 07:18:00;;;;;;;8.57;3.53;;;;;;;;;;4923690;28;20143;-72
2022/11/13 07:20:27;;;;;;;10.27;4.00;;;;;;;;;;4942807;28;20175;-72
2022/11/13 07:23:01;;;;;;;7.55;3.83;;;;;;;;;;4932943;28;20422;-72
2022/11/13 07:25:28;;;;;;;7.63;3.88;;;;;;;;;;4953639;28;20059;-72
2022/11/13 07:27:55;;;;;;;9.15;3.85;;;;;;;;;;4948757;28;20066;-72
2022/11/13 07:30:25;;;;;;;7.72;3.63;;;;;;;;;;4949934;28;20094;-73
2022/11/13 07:32:52;;;;;;;7.28;3.42;;;;;;;;;;4939619;28;20062;-72
2022/11/13 07:35:20;;;;;;;8.07;3.83;;;;;;;;;;4911716;28;20055;-72
2022/11/13 07:37:47;;;;;;;7.70;4.13;;;;;;;;;;4929963;28;20059;-72
2022/11/13 07:40:14;;;;;;;8.15;4.15;;;;;;;;;;4940977;28;20115;-72
2022/11/13 07:42:41;;;;;;;8.25;3.63;;;;;;;;;;4913929;28;20053;-72
2022/11/13 07:45:10;;;;;;;9.40;4.10;;;;;;;;;;4951644;28;20039;-72
2022/11/13 07:47:47;;;;;;;7.70;3.50;;;;;;;;;;4957510;28;20150;-72
2022/11/13 07:50:14;;;;;;;7.60;3.63;;;;;;;;;;4933020;28;20051;-72
2022/11/13 07:52:42;;;;;;;9.02;3.90;;;;;;;;;;4924877;28;20226;-72
2022/11/13 07:55:18;;;;;;;8.45;4.03;;;;;;;;;;4917832;28;20295;-73
2022/11/13 07:57:45;;;;;;;7.63;3.70;;;;;;;;;;4947665;28;20059;-72
2022/11/13 08:00:13;;;;;;;7.97;3.80;;;;;;;;;;4945790;28;20066;-72
2022/11/13 08:02:42;;;;;;;9.55;3.97;;;;;;;;;;4893573;28;20066;-72
2022/11/13 08:05:09;;;;;;;8.63;3.80;;;;;;;;;;4940919;28;20150;-72
2022/11/13 08:07:36;;;;;;;10.07;3.83;;;;;;;;;;4956743;28;20067;-72
2022/11/13 08:10:06;;;;;;;9.85;3.92;;;;;;;;;;4942701;28;20051;-74
2022/11/13 08:12:35;;;;;;;12.20;3.83;;;;;;;;;;4949049;28;20224;-74
2022/11/13 08:15:08;;;;;;;10.20;3.85;;;;;;;;;;4948995;28;20145;-72
2022/11/13 08:17:36;;;;;;;9.32;4.10;;;;;;;;;;4948282;28;20051;-72
2022/11/13 08:20:03;;;;;;;8.48;3.92;;;;;;;;;;4921763;28;20052;-72
2022/11/13 08:22:30;;;;;;;8.70;3.67;;;;;;;;;;4946175;28;20050;-72
2022/11/13 08:24:57;;;;;;;8.15;3.80;;;;;;;;;;4944117;28;20051;-72
2022/11/13 08:27:25;;;;;;;7.82;4.10;;;;;;;;;;4937148;28;20051;-72
2022/11/13 08:29:52;;;;;;;7.70;3.60;;;;;;;;;;4927744;28;20308;-71
2022/11/13 08:32:21;;;;;;;8.70;3.95;;;;;;;;;;4952879;28;20056;-72
2022/11/13 08:34:47;;;;;;;;;;;;;;;;;;4914154;28;20149;-74
2022/11/13 08:37:14;;;;;;;7.05;2.90;;;;;;;;;;4953405;28;20044;-74
2022/11/13 08:39:41;;;;;;;8.73;3.85;;;;;;;;;;4950725;28;20053;-72
2022/11/13 08:42:08;;;;;;;7.25;3.35;;;;;;;;;;4945375;28;20055;-72
2022/11/13 08:44:36;;;;;;;8.98;3.53;;;;;;;;;;4950990;28;20058;-72
2022/11/13 08:47:03;;;;;;;9.38;3.70;;;;;;;;;;4946060;28;20145;-72
2022/11/13 08:49:30;;;;;;;7.18;3.38;;;;;;;;;;4951109;28;20055;-74
2022/11/13 08:51:57;;;;;;;7.90;3.63;;;;;;;;;;4947617;28;20066;-74
2022/11/13 08:54:24;;;;;;;9.15;3.72;;;;;;;;;;4934750;28;20055;-74
2022/11/13 08:56:51;;;;;;;6.43;3.15;;;;;;;;;;4954626;28;20062;-74
2022/11/13 08:59:18;;;;;;;9.55;3.78;;;;;;;;;;4934241;28;20055;-74
2022/11/13 09:01:46;;;;;;;7.40;3.35;;;;;;;;;;4949015;28;20059;-72
2022/11/13 09:04:14;;;;;;;8.95;3.70;;;;;;;;;;4943004;28;20058;-72
2022/11/13 09:06:40;;;;;;;8.35;3.65;;;;;;;;;;4931888;28;20151;-72
2022/11/13 09:09:07;;;;;;;6.95;3.40;;;;;;;;;;4943390;28;20039;-72
2022/11/13 09:11:34;;;;;;;8.20;3.53;;;;;;;;;;4951891;28;20108;-72
2022/11/13 09:14:01;;;;;;;8.35;3.65;;;;;;;;;;4935861;28;20059;-72
2022/11/13 09:16:30;;;;;;;8.60;3.50;;;;;;;;;;4924519;28;20057;-73
2022/11/13 09:19:04;;;;;;;6.75;3.13;;;;;;;;;;4960517;28;20054;-72
2022/11/13 09:21:31;;;;;;;9.10;3.75;;;;;;;;;;4962601;28;20050;-71
2022/11/13 09:23:58;;;;;;;10.77;3.55;;;;;;;;;;4954045;28;20064;-71
2022/11/13 09:26:25;;;;;;;7.10;3.40;;;;;;;;;;4938587;28;20066;-71
2022/11/13 09:28:59;;;;;;;7.10;3.25;;;;;;;;;;4946440;28;20450;-74
2022/11/13 09:31:39;;;;;;;9.02;4.15;;;;;;;;;;4931897;28;20134;-73
2022/11/13 09:34:10;;;;;;;10.63;4.25;;;;;;;;;;4961203;28;20051;-74
2022/11/13 09:36:40;;;;;;;10.23;3.72;;;;;;;;;;4925087;28;20133;-74
2022/11/13 09:39:08;;;;;;;8.05;3.42;;;;;;;;;;4939805;28;20051;-74
2022/11/13 09:41:38;;;;;;;9.65;3.67;;;;;;;;;;4948672;28;20062;-74
2022/11/13 09:44:06;;;;;;;7.45;3.60;;;;;;;;;;4940296;28;20055;-73
2022/11/13 09:46:37;;;;;;;7.80;3.40;;;;;;;;;;4943812;28;20051;-73
2022/11/13 12:42:35;;;;;;;6.30;2.90;;;;;;;;;;770630;23;20322;-71
2022/11/13 12:45:19;;;;;;;8.35;3.28;;;;;;;;;;4998353;28;20066;-74
2022/11/13 12:47:51;;;;;;;8.00;3.40;;;;;;;;;;5008203;28;20080;-73
2022/11/13 12:50:34;;;;;;;9.27;3.42;;;;;;;;;;5009373;28;20135;-74
2022/11/13 13:11:29;;;;;;;8.60;3.78;;;;;;;;;;4978868;28;20066;-73
2022/11/13 13:17:09;;;;;;;7.63;3.50;;;;;;;;;;4998051;28;22006;-74
2022/11/13 13:19:42;;;;;;;7.85;3.38;;;;;;;;;;5013398;28;20148;-73
2022/11/13 13:22:34;;;;;;;8.07;3.42;;;;;;;;;;4991232;28;20102;-73
2022/11/13 13:28:51;;;;;;;7.55;3.30;;;;;;;;;;4912439;28;20052;-73
2022/11/13 13:31:30;;;;;;;9.10;3.80;;;;;;;;;;5000005;28;20057;-73
2022/11/13 13:34:02;;;;;;;6.32;3.50;;;;;;;;;;4968347;28;20260;-74
2022/11/13 13:36:35;;;;;;;7.75;3.95;;;;;;;;;;4972070;28;20058;-75
2022/11/13 13:39:08;;;;;;;8.63;3.50;;;;;;;;;;5010095;28;20143;-75
2022/11/13 13:41:50;;;;;;;7.72;3.28;;;;;;;;;;5011331;28;20147;-74
2022/11/13 13:44:38;;;;;;;8.27;3.38;;;;;;;;;;5016292;28;20068;-74
2022/11/13 13:47:15;;;;;;;7.37;3.20;;;;;;;;;;5010206;28;20088;-74
2022/11/13 13:49:44;;;;;;;9.75;3.67;;;;;;;;;;5003999;28;20053;-74
2022/11/13 13:52:19;;;;;;;8.27;3.83;;;;;;;;;;4993469;28;20054;-73
2022/11/13 13:54:50;;;;;;;11.45;4.72;;;;;;;;;;4990356;28;20140;-73
2022/11/13 13:57:22;;;;;;;11.27;5.35;;;;;;;;;;5003023;28;20091;-74
2022/11/13 13:59:54;;;;;;;10.43;4.38;;;;;;;;;;5020107;28;20065;-73
2022/11/13 14:02:54;;;;;;;11.88;4.95;;;;;;;;;;4997679;28;20152;-72
2022/11/13 14:05:27;;;;;;;9.63;3.90;;;;;;;;;;4976675;28;20054;-73
2022/11/13 14:07:56;;;;;;;11.18;4.18;;;;;;;;;;5007421;28;20470;-73
2022/11/13 14:10:26;;;;;;;;;;;;;;;;;;5014107;28;20045;-74
2022/11/13 14:12:56;;;;;;;7.63;3.78;;;;;;;;;;5022021;28;19955;-73
2022/11/13 14:15:33;;;;;;;9.30;3.88;;;;;;;;;;5005654;28;20139;-73
2022/11/13 14:18:26;;;;;;;8.98;4.30;;;;;;;;;;5002440;28;20147;-75
2022/11/13 14:45:45;;;;;;;7.20;3.25;;;;;;;;;;6010060;23;20033;-74
2022/11/13 14:48:29;;;;;;;8.25;3.45;;;;;;;;;;5998066;23;20038;-74
2022/11/13 14:50:57;;;;;;;6.38;3.22;;;;;;;;;;6005689;23;20030;-74
2022/11/13 14:58:26;;;;;;;5.68;2.97;;;;;;;;;;5951372;23;20044;-71
2022/11/13 15:01:05;;;;;;;7.20;3.15;;;;;;;;;;5970011;23;20110;-71
2022/11/13 15:03:39;;;;;;;;;;;;;;;;;;5999232;23;20058;-71
2022/11/13 15:11:39;;;;;;;9.32;3.15;;;;;;;;;;4855268;27;3829880;-73
2022/11/13 15:33:05;;;;;;;5.90;2.35;;;;;;;;;;5758092;22;8984343;-71
2022/11/13 15:41:11;;;;;;;6.75;3.00;;;;;;;;;;5018917;27;20163;-73
2022/11/13 15:43:41;;;;;;;8.20;3.58;;;;;;;;;;4961126;28;20134;-73
2022/11/13 15:46:25;;;;;;;;;;;;;;;;;;;;;
2022/11/13 15:52:16;;;;;;;;;;;;;;;;;;;;;
2022/11/13 15:55:00;;;;;;;34.13;8.18;;;;;;;;;;4954080;28;20054;-72
2022/11/13 16:05:22;;;;;;;39.45;8.55;;;;;;;;;;5007230;27;20533;-74
2022/11/13 16:07:50;;;;;;;27.58;7.57;;;;;;;;;;4869672;28;20173;-73
2022/11/13 16:12:44;;;;;;;32.87;7.63;;;;;;;;;;4867514;28;20377;-71
2022/11/13 16:15:13;;;;;;;26.13;7.93;;;;;;;;;;4920286;28;20050;-71
2022/11/13 16:25:17;;;;;;;26.95;7.32;;;;;;;;;;5035007;27;20940;-71
2022/11/13 16:27:44;;;;;;;25.00;7.70;;;;;;;;;;5013292;28;20144;-71
2022/11/13 16:30:14;;;;;;;21.80;6.68;;;;;;;;;;5003378;28;20073;-72
2022/11/13 16:32:41;;;;;;;22.00;7.25;;;;;;;;;;5025054;28;20101;-71
2022/11/13 16:35:11;;;;;;;27.95;7.53;;;;;;;;;;4996028;28;20898;-71
2022/11/13 16:37:39;;;;;;;29.17;7.45;;;;;;;;;;4994193;28;20049;-72
2022/11/13 16:40:13;;;;;;;24.75;6.60;;;;;;;;;;4991109;28;20064;-73
2022/11/13 16:42:44;;;;;;;22.20;7.15;;;;;;;;;;4964750;28;20050;-73
2022/11/13 16:45:17;;;;;;;20.55;6.65;;;;;;;;;;4955191;28;20058;-72
2022/11/13 16:47:44;;;;;;;23.50;6.55;;;;;;;;;;4920406;28;20059;-72
2022/11/13 16:50:15;;;;;;;19.98;6.47;;;;;;;;;;4940916;28;20145;-72
2022/11/13 16:52:42;;;;;;;23.23;6.20;;;;;;;;;;4934088;28;20468;-72
2022/11/13 17:02:51;;;;;;;17.55;6.60;;;;;;;;;;4938554;27;20514;-73
2022/11/13 17:10:28;;;;;;;19.88;6.82;;;;;;;;;;5035529;27;20415;-71
2022/11/13 17:12:56;;;;;;;19.73;6.65;;;;;;;;;;4950308;28;20117;-73
2022/11/13 17:15:23;;;;;;;17.70;5.82;;;;;;;;;;4934366;28;20057;-73
2022/11/13 17:17:50;;;;;;;17.42;5.50;;;;;;;;;;4915228;28;20141;-73
2022/11/13 17:25:26;;;;;;;16.70;5.40;;;;;;;;;;5029477;27;20459;-70
2022/11/13 17:27:54;;;;;;;20.02;6.00;;;;;;;;;;4989475;28;20088;-73
2022/11/13 17:30:23;;;;;;;17.80;5.68;;;;;;;;;;4995040;28;20147;-73
2022/11/13 17:32:50;;;;;;;14.02;5.20;;;;;;;;;;4963925;28;21851;-73
2022/11/13 17:38:01;;;;;;;14.10;5.57;;;;;;;;;;5013296;27;20468;-71
2022/11/13 17:40:31;;;;;;;11.30;4.55;;;;;;;;;;5022336;28;20140;-72
2022/11/13 17:42:59;;;;;;;14.40;5.10;;;;;;;;;;4994517;28;20132;-73
2022/11/13 17:45:30;;;;;;;13.73;5.40;;;;;;;;;;4935814;28;20086;-73
2022/11/13 17:55:32;;;;;;;13.80;4.97;;;;;;;;;;4990347;27;20528;-73
2022/11/13 17:57:59;;;;;;;14.55;5.00;;;;;;;;;;4923019;28;20066;-73
2022/11/13 18:05:49;;;;;;;10.18;4.70;;;;;;;;;;5077824;27;20756;-73
2022/11/13 18:08:17;;;;;;;14.98;5.00;;;;;;;;;;5000813;28;20107;-73
2022/11/13 18:10:44;;;;;;;12.95;5.10;;;;;;;;;;4950860;28;20172;-73
2022/11/13 18:13:11;;;;;;;13.15;5.13;;;;;;;;;;5003478;28;20127;-73
2022/11/13 18:15:38;;;;;;;10.90;4.40;;;;;;;;;;4957262;28;20054;-73
2022/11/13 18:25:38;;;;;;;13.65;5.18;;;;;;;;;;5028250;27;20437;-72
2022/11/13 18:28:05;;;;;;;11.30;4.53;;;;;;;;;;4916497;28;20041;-73
2022/11/13 18:35:40;;;;;;;11.38;4.45;;;;;;;;;;5048100;27;20421;-73
2022/11/13 18:38:08;;;;;;;10.90;4.50;;;;;;;;;;4989047;28;20061;-73
2022/11/13 18:45:55;;;;;;;11.75;4.47;;;;;;;;;;5012892;27;21242;-73
2022/11/13 18:48:22;;;;;;;11.65;4.43;;;;;;;;;;4926554;28;20083;-73
2022/11/13 18:56:15;;;;;;;9.88;4.30;;;;;;;;;;5039018;27;20486;-74
2022/11/13 18:58:43;;;;;;;11.20;4.60;;;;;;;;;;4998116;28;20377;-73
2022/11/13 19:01:10;;;;;;;13.18;4.30;;;;;;;;;;5021789;28;20062;-72
2022/11/13 19:03:37;;;;;;;10.77;4.32;;;;;;;;;;5030893;28;20056;-73
2022/11/13 19:06:07;;;;;;;12.57;5.03;;;;;;;;;;5039815;28;20047;-73
2022/11/13 19:08:35;;;;;;;11.82;4.53;;;;;;;;;;4977843;28;20081;-73
2022/11/13 19:18:43;;;;;;;9.60;4.03;;;;;;;;;;5021941;27;20451;-73
2022/11/13 19:21:10;;;;;;;11.23;4.63;;;;;;;;;;4928228;28;20118;-73
2022/11/13 19:28:48;;;;;;;8.75;3.92;;;;;;;;;;4993104;27;20692;-73
2022/11/13 19:31:15;;;;;;;10.70;4.10;;;;;;;;;;4945455;28;20058;-73
2022/11/13 19:41:17;;;;;;;7.70;3.50;;;;;;;;;;5041723;27;20473;-74
2022/11/13 19:45:19;;;;;;;9.68;3.78;;;;;;;;;;5071957;27;20387;-75
2022/11/13 19:47:46;;;;;;;9.95;4.03;;;;;;;;;;4970418;28;20105;-74
2022/11/13 19:57:49;;;;;;;10.68;4.22;;;;;;;;;;5038442;27;20639;-74
2022/11/13 20:00:17;;;;;;;9.02;4.20;;;;;;;;;;5023921;28;20141;-74
2022/11/13 20:10:22;;;;;;;10.48;4.10;;;;;;;;;;4983306;27;20603;-74
2022/11/13 20:12:49;;;;;;;9.15;3.70;;;;;;;;;;4874142;28;20144;-74
2022/11/13 20:20:29;;;;;;;8.70;3.40;;;;;;;;;;4956837;27;20492;-75
2022/11/13 20:22:56;;;;;;;13.13;3.97;;;;;;;;;;4932164;28;20050;-70
2022/11/13 20:25:23;;;;;;;7.72;3.78;;;;;;;;;;4923837;28;20059;-70
2022/11/13 20:27:50;;;;;;;10.18;4.25;;;;;;;;;;4950003;28;20468;-71
2022/11/13 20:30:17;;;;;;;7.90;3.65;;;;;;;;;;4934398;28;20058;-70
2022/11/13 20:32:46;;;;;;;10.27;4.10;;;;;;;;;;4909806;28;20149;-71
2022/11/13 20:35:14;;;;;;;8.75;4.00;;;;;;;;;;4939909;28;20062;-71
2022/11/13 20:37:53;;;;;;;8.68;3.83;;;;;;;;;;4928447;28;20054;-72
2022/11/13 20:40:21;;;;;;;8.40;3.60;;;;;;;;;;4888875;29;20063;-72
2022/11/13 20:48:04;;;;;;;8.02;3.58;;;;;;;;;;5041260;27;20423;-71
2022/11/13 20:50:33;;;;;;;;;;;;;;;;;;5029984;28;20067;-73
2022/11/13 20:53:02;;;;;;;8.75;3.55;;;;;;;;;;5001543;28;19946;-73
2022/11/13 20:55:33;;;;;;;10.40;4.25;;;;;;;;;;4956495;28;20053;-72
2022/11/13 21:13:32;;;;;;;6.32;2.92;;;;;;;;;;5009943;27;1606241;-73
2022/11/13 21:36:52;;;;;;;13.65;4.00;;;;;;;;;;4537350;27;15577292;-72
2022/11/13 21:58:04;;;;;;;6.20;2.80;;;;;;;;;;4935463;28;20426;-72
2022/11/13 22:05:52;;;;;;;8.32;3.33;;;;;;;;;;5004982;27;20517;-72
2022/11/13 22:08:19;;;;;;;8.90;4.05;;;;;;;;;;4910018;28;20056;-74
2022/11/13 22:16:05;;;;;;;6.53;3.13;;;;;;;;;;4989867;27;21014;-73
2022/11/13 22:18:40;;;;;;;11.55;3.65;;;;;;;;;;4942516;28;20300;-73